Time;durP1;ratioP1;P1;durP2;ratioP2;P2;SDS_P1;SDS_P2;PMS_P1;PMS_P2;Temp;Humidity;BMP_temperature;BMP_pressure;BME280_temperature;BME280_humidity;BME280_pressure;Samples;Min_cycle;Max_cycle;Signal;HPM_P1;HPM_P2
2022/11/10 00:00:31;;;;;;;;;5.00;3.75;;;;;13.30;63.05;101360.88;4992973;28;45586;-80
2022/11/10 00:03:06;;;;;;;;;4.50;4.00;;;;;13.29;62.62;101356.56;4991751;28;45664;-79
2022/11/10 00:05:32;;;;;;;;;4.00;3.25;;;;;13.26;63.18;101359.41;4974570;28;47085;-80
2022/11/10 00:08:02;;;;;;;;;2.00;1.00;;;;;13.22;63.03;101360.59;4992014;28;45880;-81
2022/11/10 00:10:27;;;;;;;;;3.75;3.75;;;;;13.20;62.81;101370.38;4992140;28;45748;-79
2022/11/10 00:12:53;;;;;;;;;2.25;2.25;;;;;13.20;63.15;101368.56;4992485;28;46103;-80
2022/11/10 00:18:04;;;;;;;;;4.00;2.50;;;;;13.19;62.88;101366.88;4989043;28;45629;-81
2022/11/10 00:20:30;;;;;;;;;5.00;3.00;;;;;13.18;63.30;101369.63;4990799;28;45647;-78
2022/11/10 00:22:55;;;;;;;;;3.00;2.00;;;;;13.16;63.31;101379.44;4992286;28;45769;-79
2022/11/10 00:25:22;;;;;;;;;3.00;2.00;;;;;13.14;63.49;101379.53;4991593;28;45715;-79
2022/11/10 00:27:48;;;;;;;;;3.25;3.25;;;;;13.14;63.08;101383.94;4992100;28;45830;-78
2022/11/10 00:30:13;;;;;;;;;3.50;2.50;;;;;13.15;63.75;101389.09;4991528;28;45850;-79
2022/11/10 00:32:39;;;;;;;;;4.75;2.25;;;;;13.14;63.64;101392.69;4964386;28;47505;-80
2022/11/10 00:35:06;;;;;;;;;2.75;2.00;;;;;13.13;63.25;101393.63;4986041;28;47321;-80
2022/11/10 00:37:32;;;;;;;;;5.00;3.00;;;;;13.13;63.46;101391.00;4985818;28;46125;-78
2022/11/10 00:39:57;;;;;;;;;3.50;2.50;;;;;13.13;63.54;101404.16;4987625;28;45697;-79
2022/11/10 00:42:23;;;;;;;;;3.00;3.00;;;;;13.12;63.63;101399.81;4977027;28;46105;-79
2022/11/10 00:44:48;;;;;;;;;4.00;4.00;;;;;13.12;63.63;101399.81;4988780;28;46188;-80
2022/11/10 00:47:13;;;;;;;;;7.00;4.00;;;;;13.12;63.40;101399.00;4992147;28;45564;-80
2022/11/10 00:49:39;;;;;;;;;3.50;3.25;;;;;13.12;63.60;101404.28;4991595;28;45727;-80
2022/11/10 00:52:04;;;;;;;;;3.25;2.50;;;;;13.11;63.89;101402.56;4989089;28;46316;-81
2022/11/10 00:54:30;;;;;;;;;4.25;2.75;;;;;13.10;63.89;101409.59;4989504;28;45532;-79
2022/11/10 00:56:55;;;;;;;;;4.25;3.25;;;;;13.09;63.51;101413.19;4992138;28;45734;-81
2022/11/10 00:59:20;;;;;;;;;3.75;3.75;;;;;13.07;63.93;101404.53;4968566;28;45909;-80
2022/11/10 01:01:46;;;;;;;;;4.00;3.50;;;;;13.09;64.08;101414.97;4982757;28;45689;-79
2022/11/10 01:04:11;;;;;;;;;3.00;2.75;;;;;13.08;63.73;101418.53;4987951;28;46500;-79
2022/11/10 01:06:37;;;;;;;;;4.00;3.75;;;;;13.04;64.05;101413.50;4991860;28;45758;-79
2022/11/10 01:09:03;;;;;;;;;4.00;3.00;;;;;13.08;63.77;101423.78;4988415;28;46228;-79
2022/11/10 01:11:28;;;;;;;;;3.00;3.00;;;;;13.06;63.68;101423.91;4983610;28;46190;-81
2022/11/10 01:13:55;;;;;;;;;3.75;3.00;;;;;13.06;63.74;101420.44;4991718;28;46117;-79
2022/11/10 01:16:27;;;;;;;;;4.00;3.00;;;;;13.03;63.84;101413.59;4991692;28;45725;-81
2022/11/10 01:18:54;;;;;;;;;3.50;3.50;;;;;13.05;63.77;101422.22;4991086;28;45718;-78
2022/11/10 01:21:21;;;;;;;;;5.25;4.00;;;;;13.06;63.88;101420.44;4973919;28;48571;-79
2022/11/10 01:23:47;;;;;;;;;3.50;3.00;;;;;13.04;63.97;101418.75;4991345;28;46165;-80
2022/11/10 01:26:13;;;;;;;;;3.50;2.75;;;;;13.06;64.16;101429.19;4974396;28;45867;-79
2022/11/10 01:28:39;;;;;;;;;4.00;3.00;;;;;13.05;63.83;101427.50;4990344;28;45837;-79
2022/11/10 01:31:08;;;;;;;;;4.00;3.75;;;;;13.07;64.26;101441.38;4990684;28;46913;-79
2022/11/10 01:33:34;;;;;;;;;4.00;3.00;;;;;13.03;64.08;101437.25;4973738;28;48294;-79
2022/11/10 01:36:00;;;;;;;;;3.00;2.00;;;;;13.07;64.00;101443.16;4991672;28;45674;-79
2022/11/10 01:38:27;;;;;;;;;4.00;3.00;;;;;13.03;63.70;101430.22;4990757;28;45646;-81
2022/11/10 01:40:53;;;;;;;;;5.00;3.00;;;;;13.06;64.20;101441.50;4991586;28;46441;-80
2022/11/10 01:43:18;;;;;;;;;3.00;2.25;;;;;13.05;64.30;101440.66;4972605;28;46844;-80
2022/11/10 01:46:08;;;;;;;;;4.00;3.00;;;;;13.07;63.94;101443.16;4992660;28;45531;-81
2022/11/10 01:48:51;;;;;;;;;2.25;2.00;;;;;13.07;63.88;101448.41;4914369;28;45757;-78
2022/11/10 01:51:34;;;;;;;;;3.25;3.25;;;;;13.05;64.15;101459.06;4913532;28;45691;-82
2022/11/10 01:54:07;;;;;;;;;4.50;4.25;;;;;13.03;64.44;101448.63;4911896;28;45749;-82
2022/11/10 01:56:38;;;;;;;;;4.00;3.25;;;;;13.02;64.36;101459.25;4914236;28;46176;-82
2022/11/10 01:59:08;;;;;;;;;4.25;2.75;;;;;13.01;64.14;101462.81;4914040;28;45775;-80
2022/11/10 02:01:34;;;;;;;;;3.50;2.50;;;;;12.99;64.44;101468.22;4913878;28;45740;-78
2022/11/10 02:04:03;;;;;;;;;5.00;4.00;;;;;13.01;64.56;101465.44;4914519;28;45923;-78
2022/11/10 02:06:36;;;;;;;;;2.25;2.00;;;;;12.98;64.45;101460.41;4914817;28;45860;-79
2022/11/10 02:09:02;;;;;;;;;4.25;3.50;;;;;12.97;64.37;101456.09;4913668;28;46023;-79
2022/11/10 02:11:28;;;;;;;;;6.50;4.00;;;;;12.98;64.33;101460.41;4914855;28;46160;-79
2022/11/10 02:13:54;;;;;;;;;3.75;3.50;;;;;12.96;64.26;101467.56;4914364;28;46101;-78
2022/11/10 02:16:20;;;;;;;;;3.50;3.00;;;;;12.98;64.41;101465.69;4913818;28;45660;-79
2022/11/10 02:18:47;;;;;;;;;4.25;3.50;;;;;12.98;64.43;101465.69;4913465;28;46168;-79
2022/11/10 02:21:15;;;;;;;;;7.50;4.75;;;;;12.99;64.40;101468.22;4914473;28;45807;-79
2022/11/10 02:23:45;;;;;;;;;5.00;5.00;;;;;12.99;64.42;101475.25;4906697;28;46103;-79
2022/11/10 02:26:10;;;;;;;;;4.25;3.00;;;;;13.00;64.69;101469.06;4965099;28;45658;-81
2022/11/10 02:28:36;;;;;;;;;3.25;3.25;;;;;12.96;64.53;101460.50;4993466;28;45646;-79
2022/11/10 02:31:03;;;;;;;;;4.25;4.00;;;;;12.97;64.33;101466.63;4983010;28;46386;-79
2022/11/10 02:33:29;;;;;;;;;7.50;5.75;;;;;12.98;64.72;101465.69;4991861;28;46092;-79
2022/11/10 02:35:55;;;;;;;;;4.00;3.00;;;;;13.00;64.38;101469.91;4993458;28;45829;-80
2022/11/10 02:38:21;;;;;;;;;4.75;3.50;;;;;12.99;64.31;101476.09;4993307;28;45775;-77
2022/11/10 02:40:48;;;;;;;;;6.50;6.00;;;;;13.01;64.59;101470.72;4994355;28;45969;-79
2022/11/10 02:43:16;;;;;;;;;7.25;5.50;;;;;12.99;64.76;101470.84;4994142;28;46414;-79
2022/11/10 02:45:44;;;;;;;;;7.00;5.00;;;;;12.98;64.67;101469.16;4994126;28;45694;-78
2022/11/10 02:48:11;;;;;;;;;6.25;5.00;;;;;13.00;64.69;101476.94;4993243;28;45742;-80
2022/11/10 02:50:37;;;;;;;;;5.75;5.75;;;;;13.00;64.79;101482.22;4993253;28;46521;-79
2022/11/10 02:53:03;;;;;;;;;5.00;5.00;;;;;12.99;64.65;101484.00;4975263;28;47838;-79
2022/11/10 02:55:28;;;;;;;;;7.50;7.00;;;;;12.96;64.64;101470.19;4976326;28;45661;-79
2022/11/10 02:57:54;;;;;;;;;7.75;5.25;;;;;12.98;64.75;101476.19;4993283;28;45734;-81
2022/11/10 03:00:20;;;;;;;;;7.00;7.00;;;;;12.97;64.82;101472.72;4993735;28;46188;-79
2022/11/10 03:02:45;;;;;;;;;8.75;7.00;;;;;12.93;64.47;101473.03;4993495;28;45675;-80
2022/11/10 03:05:11;;;;;;;;;7.25;4.25;;;;;12.95;65.02;101479.88;4971897;28;45764;-80
2022/11/10 03:07:37;;;;;;;;;7.50;7.00;;;;;12.95;64.87;101484.31;4992549;28;45788;-80
2022/11/10 03:10:03;;;;;;;;;7.00;6.50;;;;;12.94;64.56;101485.25;4987948;28;46466;-82
2022/11/10 03:12:29;;;;;;;;;7.50;4.50;;;;;12.91;64.89;101472.28;4993437;28;46052;-81
2022/11/10 03:14:54;;;;;;;;;5.00;5.00;;;;;12.92;64.80;101481.84;4993691;28;46765;-81
2022/11/10 03:17:20;;;;;;;;;7.00;5.50;;;;;12.90;64.89;101471.44;4993483;28;45750;-83
2022/11/10 03:19:45;;;;;;;;;5.50;5.50;;;;;12.91;64.42;101488.91;4992734;28;45575;-80
2022/11/10 03:22:11;;;;;;;;;8.75;8.00;;;;;12.88;64.78;101486.50;4991179;28;46010;-80
2022/11/10 03:24:37;;;;;;;;;6.00;6.00;;;;;12.88;65.09;101488.28;4985684;28;46043;-81
2022/11/10 03:27:03;;;;;;;;;7.00;7.00;;;;;12.83;64.85;101488.59;4988122;28;47043;-80
2022/11/10 03:29:28;;;;;;;;;10.00;8.00;;;;;12.81;64.48;101479.94;4992305;28;45590;-80
2022/11/10 03:31:54;;;;;;;;;8.50;8.25;;;;;12.78;64.98;101495.94;4969680;28;46193;-81
2022/11/10 03:34:19;;;;;;;;;10.00;8.00;;;;;12.81;64.64;101490.47;4984403;28;45791;-80
2022/11/10 03:36:44;;;;;;;;;9.75;8.25;;;;;12.77;64.74;101480.25;4971799;28;45866;-78
2022/11/10 03:39:10;;;;;;;;;9.00;8.25;;;;;12.80;64.80;101491.41;4992319;28;46972;-80
2022/11/10 03:41:35;;;;;;;;;9.00;9.00;;;;;12.77;64.89;101490.78;4958380;28;47824;-80
2022/11/10 03:44:01;;;;;;;;;8.25;7.00;;;;;12.75;64.98;101504.00;4992537;28;45678;-81
2022/11/10 03:46:26;;;;;;;;;8.00;8.00;;;;;12.73;64.88;101505.91;4993508;28;45772;-81
2022/11/10 03:48:51;;;;;;;;;8.00;6.00;;;;;12.71;64.63;101506.94;4992393;28;45699;-79
2022/11/10 03:51:17;;;;;;;;;8.00;6.75;;;;;12.73;65.08;101499.81;4993769;28;45792;-79
2022/11/10 03:53:42;;;;;;;;;9.00;7.75;;;;;12.72;64.96;101503.38;4996123;28;45720;-81
2022/11/10 03:56:08;;;;;;;;;7.00;5.00;;;;;12.70;64.71;101503.47;4995531;28;45769;-83
2022/11/10 03:58:33;;;;;;;;;8.50;6.75;;;;;12.68;65.18;101513.28;4994597;28;46611;-83
2022/11/10 04:01:00;;;;;;;;;8.00;7.00;;;;;12.67;65.14;101519.47;4990024;28;46288;-79
2022/11/10 04:03:25;;;;;;;;;9.25;8.00;;;;;12.65;64.98;101518.72;4993028;28;45800;-79
2022/11/10 04:16:48;;;;;;;;;4.25;4.25;;;;;12.58;65.21;101517.41;4984652;28;45676;-82
2022/11/10 04:19:13;;;;;;;;;7.25;5.00;;;;;12.57;65.11;101513.13;4973203;28;48695;-79
2022/11/10 04:21:39;;;;;;;;;9.00;5.50;;;;;12.52;64.94;101513.41;4992244;28;46623;-82
2022/11/10 04:24:04;;;;;;;;;6.25;6.00;;;;;12.55;65.33;101515.00;4992483;28;45856;-79
2022/11/10 04:26:31;;;;;;;;;7.00;5.00;;;;;12.53;65.09;101517.72;4992833;28;45636;-80
2022/11/10 04:29:03;;;;;;;;;8.00;6.00;;;;;12.51;65.19;101527.50;4991532;28;46391;-80
2022/11/10 04:31:30;;;;;;;;;8.75;6.75;;;;;12.51;65.15;101524.03;4991546;28;45643;-80
2022/11/10 04:33:56;;;;;;;;;9.00;6.00;;;;;12.49;65.44;101529.38;4991526;28;45871;-78
2022/11/10 04:36:27;;;;;;;;;6.75;4.75;;;;;12.44;65.37;101533.25;4992136;28;45804;-80
2022/11/10 04:38:56;;;;;;;;;6.00;4.75;;;;;12.46;65.36;101542.72;4991955;28;45630;-78
2022/11/10 04:41:23;;;;;;;;;7.50;7.00;;;;;12.45;65.14;101541.03;4992043;28;46150;-78
2022/11/10 04:43:48;;;;;;;;;7.25;6.50;;;;;12.46;65.46;101547.13;4989381;28;45797;-81
2022/11/10 04:46:25;;;;;;;;;8.75;8.00;;;;;12.42;65.28;101546.47;4992210;28;45753;-79
2022/11/10 04:48:52;;;;;;;;;9.50;7.00;;;;;12.39;65.59;101541.41;4990996;28;45729;-79
2022/11/10 04:51:19;;;;;;;;;10.75;7.00;;;;;12.37;65.27;101550.31;4990890;28;46127;-80
2022/11/10 04:53:44;;;;;;;;;6.75;6.75;;;;;12.32;65.18;101552.41;4992218;28;45800;-78
2022/11/10 04:56:18;;;;;;;;;8.00;7.00;;;;;12.32;65.36;101557.66;4992171;28;45837;-78
2022/11/10 04:58:44;;;;;;;;;8.00;5.00;;;;;12.27;65.54;101555.34;4991302;28;46561;-78
2022/11/10 05:01:15;;;;;;;;;7.00;6.00;;;;;12.24;65.53;101558.16;4991909;28;46765;-81
2022/11/10 05:03:42;;;;;;;;;10.00;9.25;;;;;12.23;65.59;101561.72;4970079;28;45779;-78
2022/11/10 05:06:08;;;;;;;;;9.00;8.00;;;;;12.24;65.63;101568.66;4991523;28;45937;-78
2022/11/10 05:08:34;;;;;;;;;9.00;8.00;;;;;12.23;65.56;101577.50;4988267;28;45594;-77
2022/11/10 05:11:00;;;;;;;;;4.00;4.00;;;;;12.20;65.49;101575.03;4991469;28;46356;-79
2022/11/10 05:13:25;;;;;;;;;8.50;6.75;;;;;12.18;65.58;101572.53;4991904;28;45625;-78
2022/11/10 05:15:51;;;;;;;;;5.25;3.25;;;;;12.20;65.46;101585.53;4991276;28;45774;-77
2022/11/10 05:18:16;;;;;;;;;8.50;8.25;;;;;12.18;65.74;101585.66;4990636;28;45693;-79
2022/11/10 05:20:42;;;;;;;;;7.75;7.00;;;;;12.16;65.91;101591.94;4991188;28;45575;-80
2022/11/10 05:25:51;;;;;;;;;8.50;8.00;;;;;12.10;65.69;101587.91;4977455;28;46531;-80
2022/11/10 05:28:17;;;;;;;;;8.25;7.00;;;;;12.06;65.85;101593.44;4986096;28;45838;-78
2022/11/10 05:30:42;;;;;;;;;6.50;6.50;;;;;12.07;65.68;101598.63;4972946;28;46983;-78
2022/11/10 05:33:08;;;;;;;;;9.00;7.00;;;;;12.07;65.73;101613.53;4991180;28;45732;-78
2022/11/10 05:35:34;;;;;;;;;6.50;5.75;;;;;12.06;65.92;101610.06;4995316;28;45671;-77
2022/11/10 05:37:59;;;;;;;;;8.25;7.75;;;;;12.04;66.07;101611.91;4993978;28;46499;-80
2022/11/10 05:40:25;;;;;;;;;8.00;7.00;;;;;12.04;65.89;101613.69;4994397;28;46204;-78
2022/11/10 05:42:54;;;;;;;;;7.75;5.75;;;;;12.00;65.95;101618.31;4990798;28;45641;-79
2022/11/10 05:45:22;;;;;;;;;8.50;7.00;;;;;12.01;65.81;101622.63;4995050;28;45946;-78
2022/11/10 05:47:47;;;;;;;;;7.75;6.25;;;;;12.00;65.92;101620.94;4992495;28;46180;-76
2022/11/10 05:50:13;;;;;;;;;6.75;6.75;;;;;11.97;66.00;101615.03;4994834;28;46052;-79
2022/11/10 05:52:43;;;;;;;;;7.50;6.50;;;;;12.00;66.04;101620.94;4974065;28;45937;-76
2022/11/10 05:55:09;;;;;;;;;7.50;7.00;;;;;11.99;65.85;101627.13;4989730;28;45889;-79
2022/11/10 05:57:34;;;;;;;;;6.50;6.50;;;;;11.94;65.96;101613.41;4995016;28;46714;-79
2022/11/10 06:00:00;;;;;;;;;10.75;7.25;;;;;11.98;65.95;101614.94;4986688;28;45938;-83
2022/11/10 06:02:26;;;;;;;;;9.25;8.00;;;;;11.97;66.02;101625.53;4980790;28;45668;-82
2022/11/10 06:04:51;;;;;;;;;8.00;8.00;;;;;11.97;66.04;101623.75;4998891;28;45536;-82
2022/11/10 06:07:16;;;;;;;;;7.00;6.25;;;;;11.94;65.90;101618.66;4995857;28;45928;-84
2022/11/10 06:09:42;;;;;;;;;7.75;7.25;;;;;11.96;66.22;101623.84;4994983;28;46022;-83
2022/11/10 06:12:07;;;;;;;;;8.75;8.00;;;;;11.93;66.24;101624.84;4994367;28;45636;-81
2022/11/10 06:14:33;;;;;;;;;8.25;8.25;;;;;11.93;66.02;101630.09;4995178;28;45814;-80
2022/11/10 06:16:58;;;;;;;;;10.00;8.50;;;;;11.91;66.34;101628.53;4990876;28;45595;-82
2022/11/10 06:19:24;;;;;;;;;10.25;8.50;;;;;11.88;66.09;101634.78;4994520;28;46159;-82
2022/11/10 06:21:49;;;;;;;;;10.00;8.00;;;;;11.89;66.14;101638.25;4994672;28;46046;-82
2022/11/10 06:24:14;;;;;;;;;9.00;8.50;;;;;11.88;66.17;101640.03;4995043;28;45822;-79
2022/11/10 06:26:40;;;;;;;;;7.25;7.25;;;;;11.85;66.18;101631.50;4987542;28;46701;-80
2022/11/10 06:29:05;;;;;;;;;7.50;6.75;;;;;11.86;66.08;101641.09;4993138;28;45919;-80
2022/11/10 06:31:30;;;;;;;;;6.50;6.50;;;;;11.86;66.28;101641.09;4993964;28;45698;-78
2022/11/10 06:33:56;;;;;;;;;7.50;7.00;;;;;11.85;66.20;101644.66;4983414;28;45934;-79
2022/11/10 06:36:22;;;;;;;;;6.00;6.00;;;;;11.83;66.25;101649.97;4984575;28;46302;-78
2022/11/10 06:38:47;;;;;;;;;8.25;7.25;;;;;11.84;66.32;101650.81;4992559;28;46443;-78
2022/11/10 06:41:12;;;;;;;;;6.75;6.25;;;;;11.83;66.47;101657.84;4967842;28;45711;-80
2022/11/10 06:43:38;;;;;;;;;8.50;7.50;;;;;11.81;66.35;101659.75;4990405;28;46251;-80
2022/11/10 06:46:04;;;;;;;;;7.00;6.75;;;;;11.82;66.33;101671.94;4981940;28;47440;-78
2022/11/10 06:48:29;;;;;;;;;11.50;9.25;;;;;11.82;66.29;101681.59;4986326;28;45762;-78
2022/11/10 06:50:55;;;;;;;;;8.00;7.50;;;;;11.78;66.53;101670.41;4983689;28;46260;-79
2022/11/10 06:53:20;;;;;;;;;7.50;6.00;;;;;11.76;66.48;101673.16;4976022;28;45615;-79
2022/11/10 06:55:45;;;;;;;;;8.00;7.00;;;;;11.73;66.51;101677.72;4969785;28;46664;-78
2022/11/10 06:58:11;;;;;;;;;8.75;8.00;;;;;11.71;66.71;101682.19;4968619;28;47345;-79
2022/11/10 07:00:36;;;;;;;;;8.00;8.00;;;;;11.70;66.71;101683.13;4981379;28;46056;-79
2022/11/10 07:03:07;;;;;;;;;56.25;43.75;;;;;11.67;66.91;101699.03;4989635;28;45631;-80
2022/11/10 07:05:34;;;;;;;;;37.00;35.25;;;;;11.68;66.99;101698.09;4992683;28;47430;-84
2022/11/10 07:08:04;;;;;;;;;25.75;23.00;;;;;11.66;66.99;101703.44;4982114;28;46164;-78
2022/11/10 07:10:31;;;;;;;;;11.25;8.75;;;;;11.67;66.91;101707.75;5000840;28;45830;-81
2022/11/10 07:12:58;;;;;;;;;10.50;10.25;;;;;11.67;66.96;101712.16;4993994;28;45916;-81
2022/11/10 07:15:23;;;;;;;;;21.00;20.00;;;;;11.67;66.87;101722.66;4993617;28;45785;-80
2022/11/10 07:17:49;;;;;;;;;8.25;7.25;;;;;11.64;67.08;101715.81;4992045;28;46523;-77
2022/11/10 07:20:14;;;;;;;;;10.50;8.75;;;;;11.67;66.83;101728.75;4993722;28;45857;-79
2022/11/10 07:22:40;;;;;;;;;0.00;0.00;;;;;11.65;66.98;101725.41;4993410;28;45517;-80
2022/11/10 07:25:06;;;;;;;;;10.00;9.00;;;;;11.67;66.99;101736.63;4987678;28;45622;-77
2022/11/10 07:27:31;;;;;;;;;7.50;7.25;;;;;11.68;67.03;101735.72;4992831;28;46182;-78
2022/11/10 07:29:56;;;;;;;;;17.25;14.50;;;;;11.69;67.13;101740.03;4991533;28;46077;-78
2022/11/10 07:32:22;;;;;;;;;8.00;7.00;;;;;11.69;67.07;101740.03;4981647;28;45832;-75
2022/11/10 07:34:47;;;;;;;;;8.75;7.50;;;;;11.72;67.22;101744.25;4993208;28;45904;-76
2022/11/10 07:37:13;;;;;;;;;9.00;9.00;;;;;11.74;67.11;101743.25;4992829;28;45977;-77
2022/11/10 07:39:38;;;;;;;;;9.25;8.50;;;;;11.76;66.93;101748.44;4992578;28;45755;-77
2022/11/10 07:42:03;;;;;;;;;10.00;9.00;;;;;11.75;67.17;101746.75;4982114;28;45839;-77
2022/11/10 07:44:29;;;;;;;;;8.00;7.00;;;;;11.77;67.09;101753.56;4992861;28;46386;-78
2022/11/10 07:46:54;;;;;;;;;8.00;7.50;;;;;11.81;67.21;101766.53;4992276;28;46135;-79
2022/11/10 07:49:20;;;;;;;;;13.75;10.75;;;;;11.81;67.15;101764.78;4991908;28;46050;-75
2022/11/10 07:51:45;;;;;;;;;9.25;8.75;;;;;11.84;66.96;101774.22;4993113;28;45667;-76
2022/11/10 07:54:11;;;;;;;;;11.25;10.00;;;;;11.86;67.18;101782.88;4992549;28;46265;-79
2022/11/10 07:56:36;;;;;;;;;9.00;8.25;;;;;11.87;67.03;101782.81;4992080;28;46182;-80
2022/11/10 07:59:01;;;;;;;;;8.00;8.00;;;;;11.89;66.93;101790.56;4984926;28;45709;-78
2022/11/10 08:01:28;;;;;;;;;5.25;4.25;;;;;11.91;66.74;101800.06;4992975;28;45567;-75
2022/11/10 08:03:53;;;;;;;;;11.00;9.75;;;;;11.92;66.81;101798.28;4974871;28;46530;-76
2022/11/10 08:06:19;;;;;;;;;10.50;8.50;;;;;11.92;66.79;101809.63;4995534;28;45874;-77
2022/11/10 08:08:46;;;;;;;;;12.75;10.00;;;;;11.95;66.68;101816.47;4993038;28;45768;-79
2022/11/10 08:11:11;;;;;;;;;11.00;9.25;;;;;11.98;66.70;101825.06;4995672;28;45895;-75
2022/11/10 08:13:38;;;;;;;;;12.25;9.50;;;;;12.00;66.90;101828.41;4993295;28;45505;-76
2022/11/10 08:16:04;;;;;;;;;8.75;7.75;;;;;12.01;66.64;101831.88;4979465;28;46731;-77
2022/11/10 08:18:29;;;;;;;;;13.50;13.00;;;;;12.03;66.53;101828.25;4987849;28;45599;-77
2022/11/10 08:20:55;;;;;;;;;15.50;14.50;;;;;12.05;66.92;101833.41;4992765;28;45815;-78
2022/11/10 08:23:20;;;;;;;;;10.50;10.00;;;;;12.06;66.96;101843.81;5003846;28;46118;-77
2022/11/10 08:25:46;;;;;;;;;13.00;10.25;;;;;12.07;66.90;101839.41;4974220;28;46687;-75
2022/11/10 08:28:15;;;;;;;;;14.25;13.00;;;;;12.08;66.76;101843.75;4991858;28;45659;-76
2022/11/10 08:30:43;;;;;;;;;6.50;4.25;;;;;12.11;66.65;101852.28;4974065;28;45590;-76
2022/11/10 08:33:10;;;;;;;;;12.75;10.50;;;;;12.14;66.83;101848.66;4987204;28;46927;-77
2022/11/10 08:35:39;;;;;;;;;15.00;13.00;;;;;12.16;66.76;101855.50;4997869;28;46777;-76
2022/11/10 08:38:10;;;;;;;;;14.00;12.25;;;;;12.17;66.86;101854.56;4991565;28;45991;-77
2022/11/10 08:40:35;;;;;;;;;14.50;13.25;;;;;12.16;66.57;101852.00;4992753;28;45734;-75
2022/11/10 08:43:02;;;;;;;;;14.75;14.25;;;;;12.19;66.42;101854.50;4992495;28;45776;-78
2022/11/10 08:45:28;;;;;;;;;13.00;11.50;;;;;12.18;66.85;101848.38;4991406;28;46094;-77
2022/11/10 08:48:20;;;;;;;;;11.00;10.75;;;;;12.22;66.61;101853.44;4989751;28;45782;-77
2022/11/10 08:50:46;;;;;;;;;20.25;14.50;;;;;12.22;66.42;101856.91;4985238;28;45686;-76
2022/11/10 08:53:16;;;;;;;;;14.75;13.25;;;;;12.23;66.57;101861.25;4991797;28;46195;-76
2022/11/10 08:55:42;;;;;;;;;14.00;11.00;;;;;12.25;66.44;101869.06;4991684;28;45861;-77
2022/11/10 08:58:12;;;;;;;;;17.50;15.00;;;;;12.27;66.60;101873.25;4988921;28;45656;-78
2022/11/10 09:00:37;;;;;;;;;16.75;11.25;;;;;12.28;66.37;101874.97;4966603;28;47221;-75
2022/11/10 09:03:12;;;;;;;;;16.50;15.25;;;;;12.30;66.57;101886.25;4993957;28;45790;-77
2022/11/10 09:05:39;;;;;;;;;21.00;18.75;;;;;12.32;66.62;101889.59;4983887;28;46222;-76
2022/11/10 09:08:12;;;;;;;;;16.25;16.25;;;;;12.33;66.38;101888.69;4986424;28;45756;-77
2022/11/10 09:10:41;;;;;;;;;19.25;17.75;;;;;12.33;66.26;101888.69;4988692;28;45773;-78
2022/11/10 09:13:06;;;;;;;;;19.50;18.00;;;;;12.33;66.27;101893.94;4987286;28;45951;-78
2022/11/10 09:15:33;;;;;;;;;19.50;18.75;;;;;12.34;66.21;101892.16;4984667;28;45639;-76
2022/11/10 09:18:00;;;;;;;;;21.00;19.25;;;;;12.35;66.59;101896.50;4989736;28;45602;-78
2022/11/10 09:20:27;;;;;;;;;20.75;19.25;;;;;12.32;66.32;101900.13;4991418;28;45767;-78
2022/11/10 09:22:52;;;;;;;;;26.00;22.00;;;;;12.31;66.46;101900.22;4969381;28;48226;-78
2022/11/10 09:25:18;;;;;;;;;20.00;15.50;;;;;12.28;66.49;101900.38;4988688;28;46108;-78
2022/11/10 09:27:43;;;;;;;;;20.50;17.75;;;;;12.29;66.59;101899.47;4991017;28;46025;-78
2022/11/10 09:30:09;;;;;;;;;18.50;15.50;;;;;12.27;66.33;101909.19;4987804;28;45836;-78
2022/11/10 09:32:35;;;;;;;;;22.75;17.75;;;;;12.29;66.64;101917.84;4982676;28;45911;-78
2022/11/10 09:35:00;;;;;;;;;25.75;20.50;;;;;12.30;66.56;101919.56;4990836;28;45611;-78
2022/11/10 09:37:26;;;;;;;;;20.75;20.00;;;;;12.29;66.89;101918.72;4990426;28;45996;-77
2022/11/10 09:39:52;;;;;;;;;20.75;20.00;;;;;12.31;66.90;101911.56;4975366;28;45868;-77
2022/11/10 09:42:27;;;;;;;;;20.50;19.50;;;;;12.33;66.68;101914.97;4966126;28;47351;-78
2022/11/10 09:45:03;;;;;;;;;22.00;20.50;;;;;12.32;66.62;101915.88;4978109;28;46053;-77
2022/11/10 09:47:47;;;;;;;;;22.50;19.00;;;;;12.36;66.69;101916.59;4989249;28;47335;-77
2022/11/10 09:50:29;;;;;;;;;20.25;14.75;;;;;12.35;67.00;101917.50;4988428;28;45753;-76
2022/11/10 09:52:58;;;;;;;;;19.25;17.75;;;;;12.40;66.97;101925.97;5001976;28;46239;-78
2022/11/10 09:55:37;;;;;;;;;21.25;20.50;;;;;12.39;66.93;101917.25;4988649;28;46126;-78
2022/11/10 09:58:03;;;;;;;;;23.75;18.75;;;;;12.41;67.00;101917.16;4989517;28;45736;-79
2022/11/10 10:00:33;;;;;;;;;19.50;17.75;;;;;12.41;67.04;101915.38;4990359;28;45710;-84
2022/11/10 10:03:02;;;;;;;;;21.25;18.50;;;;;12.46;67.15;101925.63;4989806;28;46647;-81
2022/11/10 10:05:50;;;;;;;;;23.00;18.75;;;;;12.48;67.16;101926.38;4988624;28;46671;-83
2022/11/10 10:08:27;;;;;;;;;21.00;19.75;;;;;12.49;67.26;101931.53;4986715;28;45571;-83
2022/11/10 10:11:09;;;;;;;;;20.25;16.75;;;;;12.50;67.15;101922.72;4990151;28;45758;-81
2022/11/10 10:14:12;;;;;;;;;24.50;21.00;;;;;12.52;67.26;101939.22;4994819;28;46566;-82
2022/11/10 10:17:00;;;;;;;;;26.00;22.50;;;;;12.56;66.95;101950.44;4997419;28;46171;-80
2022/11/10 10:19:56;;;;;;;;;19.75;16.75;;;;;12.58;67.02;101959.91;4995501;28;46047;-84
2022/11/10 10:22:59;;;;;;;;;20.75;18.75;;;;;12.61;66.88;101956.28;4995609;28;46251;-78
2022/11/10 10:25:26;;;;;;;;;20.00;16.75;;;;;12.62;66.69;101963.25;4976937;28;47787;-80
2022/11/10 10:28:15;;;;;;;;;19.25;16.00;;;;;12.63;67.03;101970.19;4993270;28;46428;-81
2022/11/10 10:30:42;;;;;;;;;21.50;20.75;;;;;12.68;67.20;101975.19;4971159;28;45857;-78
2022/11/10 10:33:12;;;;;;;;;21.50;18.50;;;;;12.69;67.19;101964.56;4969241;28;45779;-79
2022/11/10 10:35:39;;;;;;;;;20.25;14.50;;;;;12.71;67.03;101982.88;4979339;28;45625;-81
2022/11/10 10:38:29;;;;;;;;;20.75;18.75;;;;;12.72;67.33;101987.22;4974386;28;47469;-78
2022/11/10 10:41:02;;;;;;;;;19.75;16.25;;;;;12.75;67.10;101987.88;4974144;28;45567;-78
2022/11/10 10:43:28;;;;;;;;;20.00;16.25;;;;;12.78;67.18;101995.59;4974176;28;45792;-79
2022/11/10 10:46:05;;;;;;;;;6.75;4.00;;;;;12.81;67.08;101998.03;4975112;28;45856;-80
2022/11/10 10:48:30;;;;;;;;;24.25;20.25;;;;;12.81;67.10;101998.03;4961632;28;46089;-79
2022/11/10 10:50:56;;;;;;;;;21.75;18.75;;;;;12.85;67.06;102002.16;4973344;28;45725;-81
2022/11/10 10:53:24;;;;;;;;;21.00;17.50;;;;;12.85;67.09;101991.66;4974404;28;45628;-78
2022/11/10 10:56:15;;;;;;;;;21.75;19.50;;;;;12.92;66.98;102000.03;4972303;28;47306;-79
2022/11/10 10:58:59;;;;;;;;;23.50;20.75;;;;;12.93;67.12;101991.22;4971624;28;46004;-79
2022/11/10 11:01:35;;;;;;;;;22.50;18.50;;;;;12.95;67.02;101991.97;4973954;28;45858;-80
2022/11/10 11:04:24;;;;;;;;;20.75;14.75;;;;;12.94;67.15;101985.88;4970195;28;45721;-80
2022/11/10 11:06:57;;;;;;;;;22.00;17.50;;;;;12.98;67.24;101983.91;4971675;28;46613;-79
2022/11/10 11:09:23;;;;;;;;;23.00;18.50;;;;;12.97;67.00;101980.41;4972211;28;45890;-78
2022/11/10 11:12:26;;;;;;;;;20.50;17.50;;;;;13.00;67.22;101980.25;4973648;28;45902;-80
2022/11/10 11:15:10;;;;;;;;;24.25;21.50;;;;;13.05;67.35;101974.72;4965407;28;45921;-80
2022/11/10 11:17:36;;;;;;;;;23.75;21.00;;;;;13.06;67.07;101973.78;4972137;28;46943;-80
2022/11/10 11:20:02;;;;;;;;;21.25;19.50;;;;;13.06;67.39;101973.78;4973032;28;45842;-80
2022/11/10 11:22:27;;;;;;;;;24.00;19.00;;;;;13.10;67.33;101972.66;4970623;28;46096;-80
2022/11/10 11:25:27;;;;;;;;;22.00;20.50;;;;;13.11;67.41;101974.34;4973665;28;45586;-78
2022/11/10 11:28:38;;;;;;;;;22.50;19.50;;;;;13.12;67.46;101973.41;4970975;28;45756;-80
2022/11/10 11:31:25;;;;;;;;;20.75;18.50;;;;;13.14;67.68;101976.81;4918437;28;46151;-82
2022/11/10 11:34:10;;;;;;;;;17.50;16.00;;;;;13.16;67.24;101977.59;4935880;28;45867;-80
2022/11/10 11:36:38;;;;;;;;;16.25;15.50;;;;;13.18;67.23;101980.94;4936454;28;45659;-80
2022/11/10 11:39:14;;;;;;;;;19.25;18.00;;;;;13.20;67.37;101979.09;4932293;28;45843;-82
2022/11/10 11:41:50;;;;;;;;;23.25;20.50;;;;;13.21;67.25;101975.53;4933684;28;48366;-80